createdAt,value
2018-07-19T00:00:06.528Z,55.80
2018-07-19T00:02:34.886Z,55.80
2018-07-19T00:05:03.240Z,55.80
2018-07-19T00:07:31.591Z,56.00
2018-07-19T00:09:59.915Z,56.10
2018-07-19T00:14:56.351Z,56.60
2018-07-19T00:17:24.730Z,56.70
2018-07-19T00:19:53.068Z,56.80
2018-07-19T00:22:21.422Z,56.70
2018-07-19T00:24:49.764Z,57.00
2018-07-19T00:27:18.123Z,57.20
2018-07-19T00:29:46.478Z,57.40
2018-07-19T00:32:14.853Z,57.80
2018-07-19T00:34:43.180Z,58.00
2018-07-19T00:37:11.561Z,58.10
2018-07-19T00:39:39.901Z,58.30
2018-07-19T00:42:08.771Z,58.60
2018-07-19T00:44:37.103Z,58.80
2018-07-19T00:47:05.648Z,59.20
2018-07-19T00:49:33.990Z,59.40
2018-07-19T00:52:02.376Z,59.50
2018-07-19T00:56:58.815Z,59.30
2018-07-19T01:04:23.381Z,59.50
2018-07-19T01:06:51.779Z,59.80
2018-07-19T01:09:20.115Z,59.90
2018-07-19T01:11:48.452Z,59.80
2018-07-19T01:14:16.800Z,60.50
2018-07-19T01:16:45.152Z,61.00
2018-07-19T01:19:13.494Z,61.10
2018-07-19T01:21:41.883Z,61.10
2018-07-19T01:24:10.270Z,61.20
2018-07-19T01:26:38.644Z,61.20
2018-07-19T01:29:07.037Z,61.60
2018-07-19T01:31:36.544Z,61.40
2018-07-19T01:36:33.084Z,61.70
2018-07-19T01:39:01.444Z,62.20
2018-07-19T01:42:41.043Z,61.80
2018-07-19T01:45:10.120Z,61.90
2018-07-19T01:47:38.560Z,62.50
2018-07-19T01:50:07.935Z,62.30
2018-07-19T01:52:36.324Z,62.90
2018-07-19T01:55:05.152Z,63.40
2018-07-19T01:57:33.527Z,63.80
2018-07-19T02:00:01.929Z,63.60
2018-07-19T02:02:30.271Z,63.40
2018-07-19T02:04:58.623Z,63.90
2018-07-19T02:07:26.964Z,63.90
2018-07-19T02:12:23.428Z,64.20
2018-07-19T02:17:19.858Z,64.10
2018-07-19T02:19:48.255Z,64.70
2018-07-19T02:22:16.610Z,64.70
2018-07-19T02:24:45.280Z,64.70
2018-07-19T02:27:13.784Z,64.80
2018-07-19T02:29:42.189Z,65.20
2018-07-19T02:34:38.679Z,65.60
2018-07-19T02:37:07.040Z,65.70
2018-07-19T02:39:35.420Z,65.70
2018-07-19T02:42:03.773Z,65.60
2018-07-19T02:44:32.165Z,65.50
2018-07-19T02:47:00.503Z,65.60
2018-07-19T02:49:28.867Z,66.00
2018-07-19T02:51:57.244Z,66.00
2018-07-19T02:54:25.618Z,66.60
2018-07-19T02:56:53.986Z,66.90
2018-07-19T02:59:22.369Z,66.60
2018-07-19T03:01:50.731Z,67.20
2018-07-19T03:04:19.109Z,67.30
2018-07-19T03:06:47.459Z,67.60
2018-07-19T03:09:15.826Z,67.80
2018-07-19T03:11:44.168Z,67.70
2018-07-19T03:14:12.530Z,67.70
2018-07-19T03:19:08.976Z,68.00
2018-07-19T03:24:05.475Z,68.10
2018-07-19T03:26:33.820Z,68.50
2018-07-19T03:29:02.193Z,68.20
2018-07-19T03:31:30.573Z,68.00
2018-07-19T03:33:58.944Z,68.50
2018-07-19T03:36:27.290Z,68.10
2018-07-19T03:38:55.654Z,68.30
2018-07-19T03:41:23.991Z,68.70
2018-07-19T03:43:52.367Z,68.80
2018-07-19T03:46:20.736Z,69.70
2018-07-19T03:48:49.163Z,69.20
2018-07-19T03:51:17.517Z,69.70
2018-07-19T03:53:45.858Z,69.30
2018-07-19T03:56:14.248Z,70.60
2018-07-19T03:58:42.632Z,69.60
2018-07-19T04:01:10.996Z,69.50
2018-07-19T04:03:39.351Z,70.20
2018-07-19T04:06:07.724Z,69.20
2018-07-19T04:08:36.078Z,69.20
2018-07-19T04:11:04.460Z,69.30
2018-07-19T04:13:32.811Z,69.30
2018-07-19T04:16:01.185Z,69.60
2018-07-19T04:18:29.564Z,69.60
2018-07-19T04:20:57.942Z,69.50
2018-07-19T04:23:26.285Z,69.80
2018-07-19T04:25:54.668Z,70.00
2018-07-19T04:28:23.019Z,70.00
2018-07-19T04:30:51.453Z,70.10
2018-07-19T04:33:19.835Z,70.10
2018-07-19T04:35:48.211Z,70.00
2018-07-19T04:38:16.630Z,70.30
2018-07-19T04:40:44.972Z,70.10
2018-07-19T04:43:13.330Z,70.00
2018-07-19T04:45:41.781Z,70.50
2018-07-19T04:48:10.190Z,70.80
2018-07-19T04:50:38.523Z,70.70
2018-07-19T04:55:34.983Z,72.10
2018-07-19T04:58:03.375Z,72.90
2018-07-19T05:00:31.769Z,72.00
2018-07-19T05:03:00.171Z,72.20
2018-07-19T05:05:28.603Z,72.20
2018-07-19T05:07:56.947Z,71.90
2018-07-19T05:10:25.315Z,71.90
2018-07-19T05:12:53.649Z,71.60
2018-07-19T05:15:21.995Z,71.70
2018-07-19T05:17:50.327Z,71.70
2018-07-19T05:20:18.674Z,71.90
2018-07-19T05:22:47.006Z,71.80
2018-07-19T05:25:15.354Z,72.10
2018-07-19T05:27:43.748Z,72.00
2018-07-19T05:30:12.120Z,72.20
2018-07-19T05:32:40.456Z,71.90
2018-07-19T05:35:08.832Z,71.60
2018-07-19T05:37:37.158Z,71.30
2018-07-19T05:40:05.511Z,71.60
2018-07-19T05:42:33.860Z,71.20
2018-07-19T05:45:02.210Z,71.20
2018-07-19T05:47:30.611Z,70.90
2018-07-19T05:49:58.945Z,70.90
2018-07-19T05:52:27.296Z,70.60
2018-07-19T05:54:55.628Z,70.50
2018-07-19T05:57:24.034Z,70.30
2018-07-19T05:59:52.371Z,70.50
2018-07-19T06:02:20.747Z,70.40
2018-07-19T06:04:49.071Z,70.40
2018-07-19T06:07:17.444Z,70.30
2018-07-19T06:09:45.830Z,70.40
2018-07-19T06:12:14.131Z,70.00
2018-07-19T06:14:42.491Z,69.90
2018-07-19T06:17:11.216Z,69.40
2018-07-19T06:19:39.566Z,69.30
2018-07-19T06:22:07.925Z,69.00
2018-07-19T06:24:36.327Z,69.40
2018-07-19T06:27:04.872Z,69.30
2018-07-19T06:29:33.207Z,69.80
2018-07-19T06:32:01.607Z,68.30
2018-07-19T06:34:29.938Z,68.30
2018-07-19T06:36:58.318Z,67.80
2018-07-19T06:39:26.656Z,67.90
2018-07-19T06:41:55.060Z,67.90
2018-07-19T06:44:23.426Z,67.30
2018-07-19T06:46:51.795Z,67.10
2018-07-19T06:49:20.167Z,66.80
2018-07-19T06:51:48.528Z,66.20
2018-07-19T06:56:44.983Z,66.10
2018-07-19T06:59:13.315Z,64.80
2018-07-19T07:01:41.662Z,64.90
2018-07-19T07:04:10.025Z,65.00
2018-07-19T07:06:38.403Z,65.10
2018-07-19T07:09:08.607Z,64.00
2018-07-19T07:11:37.006Z,63.50
2018-07-19T07:14:05.604Z,63.00
2018-07-19T07:19:02.048Z,62.00
2018-07-19T07:21:30.407Z,62.00
2018-07-19T07:23:58.743Z,61.80
2018-07-19T07:26:27.102Z,60.80
2018-07-19T07:28:55.440Z,60.30
2018-07-19T07:31:23.815Z,60.30
2018-07-19T07:36:20.259Z,59.80
2018-07-19T07:38:48.653Z,58.70
2018-07-19T07:41:16.935Z,58.50
2018-07-19T07:43:45.288Z,58.10
2018-07-19T07:46:13.623Z,57.90
2018-07-19T07:48:41.993Z,58.30
2018-07-19T07:53:38.432Z,56.80
2018-07-19T07:56:06.819Z,56.90
2018-07-19T07:58:35.256Z,56.60
2018-07-19T08:01:03.543Z,56.30
2018-07-19T08:03:31.900Z,56.10
2018-07-19T08:06:00.225Z,55.20
2018-07-19T08:08:28.603Z,54.90
2018-07-19T08:13:25.028Z,54.20
2018-07-19T08:15:53.415Z,53.80
2018-07-19T08:18:21.752Z,53.20
2018-07-19T08:20:50.074Z,52.60
2018-07-19T08:23:18.429Z,52.70
2018-07-19T08:25:46.786Z,52.50
2018-07-19T08:28:15.143Z,51.90
2018-07-19T08:30:43.492Z,50.50
2018-07-19T08:33:11.863Z,50.90
2018-07-19T08:35:40.195Z,50.60
2018-07-19T08:38:08.891Z,49.60
2018-07-19T08:40:37.226Z,49.90
2018-07-19T08:43:05.619Z,49.60
2018-07-19T08:45:33.956Z,48.80
2018-07-19T08:48:02.332Z,48.60
2018-07-19T08:50:30.679Z,48.90
2018-07-19T08:52:59.051Z,47.70
2018-07-19T08:55:27.629Z,47.50
2018-07-19T08:57:56.031Z,47.70
2018-07-19T09:00:24.408Z,47.20
2018-07-19T09:02:52.751Z,47.20
2018-07-19T09:05:21.159Z,46.70
2018-07-19T09:07:49.532Z,46.70
2018-07-19T09:10:18.109Z,46.60
2018-07-19T09:12:46.552Z,45.30
2018-07-19T09:15:14.924Z,45.20
2018-07-19T09:17:43.313Z,45.20
2018-07-19T09:20:11.643Z,44.60
2018-07-19T09:22:40.241Z,44.10
2018-07-19T09:25:08.689Z,43.80
2018-07-19T09:27:37.040Z,43.30
2018-07-19T09:30:06.504Z,43.20
2018-07-19T09:32:34.900Z,43.50
2018-07-19T09:37:31.280Z,42.40
2018-07-19T09:39:59.625Z,42.10
2018-07-19T09:42:28.897Z,41.70
2018-07-19T09:44:57.513Z,41.20
2018-07-19T09:47:25.868Z,41.40
2018-07-19T09:49:55.748Z,40.90
2018-07-19T09:52:24.093Z,40.60
2018-07-19T09:54:54.732Z,40.40
2018-07-19T09:57:23.096Z,39.80
2018-07-19T09:59:51.527Z,39.60
2018-07-19T10:02:20.037Z,39.70
2018-07-19T10:04:48.408Z,39.50
2018-07-19T10:09:44.869Z,38.70
2018-07-19T10:14:41.291Z,38.10
2018-07-19T10:17:09.636Z,38.10
2018-07-19T10:19:38.002Z,39.00
2018-07-19T10:22:06.357Z,38.50
2018-07-19T10:24:34.725Z,37.70
2018-07-19T10:27:03.059Z,37.80
2018-07-19T10:29:31.421Z,37.20
2018-07-19T10:31:59.858Z,37.00
2018-07-19T10:34:28.243Z,37.10
2018-07-19T10:36:56.524Z,37.50
2018-07-19T10:41:52.963Z,36.70
2018-07-19T10:44:21.347Z,36.40
2018-07-19T10:46:49.675Z,36.00
2018-07-19T10:49:18.013Z,35.70
2018-07-19T10:51:46.449Z,35.60
2018-07-19T10:54:14.739Z,35.30
2018-07-19T10:56:43.135Z,35.10
2018-07-19T10:59:11.460Z,34.90
2018-07-19T11:01:39.827Z,34.70
2018-07-19T11:06:36.239Z,34.90
2018-07-19T11:09:07.328Z,34.60
2018-07-19T11:14:03.764Z,34.10
2018-07-19T11:16:32.115Z,34.30
2018-07-19T11:19:00.443Z,34.20
2018-07-19T11:21:28.804Z,33.60
2018-07-19T11:23:57.119Z,33.70
2018-07-19T11:26:25.485Z,34.10
2018-07-19T11:31:21.871Z,32.50
2018-07-19T11:36:18.259Z,32.20
2018-07-19T11:38:46.576Z,32.20
2018-07-19T11:41:14.997Z,32.20
2018-07-19T11:43:43.331Z,31.90
2018-07-19T11:46:11.683Z,31.90
2018-07-19T11:51:08.091Z,31.80
2018-07-19T11:53:36.499Z,31.60
2018-07-19T11:56:04.907Z,31.50
2018-07-19T12:01:01.327Z,31.10
2018-07-19T12:03:29.655Z,30.80
2018-07-19T12:05:58.014Z,30.60
2018-07-19T12:10:54.404Z,30.00
2018-07-19T12:13:22.783Z,29.80
2018-07-19T12:15:51.165Z,29.70
2018-07-19T12:18:19.487Z,29.40
2018-07-19T12:20:47.827Z,29.30
2018-07-19T12:23:16.156Z,29.30
2018-07-19T12:30:40.623Z,28.50
2018-07-19T12:33:08.943Z,28.50
2018-07-19T12:35:37.344Z,28.20
2018-07-19T12:43:02.097Z,28.00
2018-07-19T12:45:30.430Z,28.50
2018-07-19T12:47:58.788Z,28.10
2018-07-19T12:50:27.103Z,27.90
2018-07-19T12:52:55.442Z,27.90
2018-07-19T12:55:23.839Z,28.00
2018-07-19T12:57:52.208Z,27.80
2018-07-19T13:00:20.547Z,28.00
2018-07-19T13:02:48.900Z,27.80
2018-07-19T13:05:17.303Z,27.70
2018-07-19T13:07:45.628Z,27.80
2018-07-19T13:10:13.963Z,27.80
2018-07-19T13:12:42.339Z,28.10
2018-07-19T13:15:10.663Z,28.40
2018-07-19T13:17:39.028Z,28.60
2018-07-19T13:20:07.363Z,28.90
2018-07-19T13:29:59.908Z,27.70
2018-07-19T13:32:28.292Z,27.30
2018-07-19T13:34:56.610Z,26.90
2018-07-19T13:39:53.063Z,27.10
2018-07-19T13:44:50.022Z,26.50
2018-07-19T13:47:18.375Z,26.50
2018-07-19T13:49:46.723Z,26.40
2018-07-19T13:52:15.530Z,26.40
2018-07-19T13:54:49.164Z,26.70
2018-07-19T13:57:17.544Z,27.10
2018-07-19T13:59:45.899Z,27.20
2018-07-19T14:02:14.643Z,27.40
2018-07-19T14:04:42.963Z,27.60
2018-07-19T14:07:11.303Z,27.50
2018-07-19T14:09:39.620Z,27.30
2018-07-19T14:12:07.980Z,27.30
2018-07-19T14:14:37.136Z,27.40
2018-07-19T14:17:05.484Z,27.30
2018-07-19T14:19:33.823Z,27.00
2018-07-19T14:22:02.195Z,26.40
2018-07-19T14:24:30.527Z,26.10
2018-07-19T14:26:58.867Z,25.90
2018-07-19T14:29:27.181Z,25.90
2018-07-19T14:31:55.546Z,25.80
2018-07-19T14:34:23.881Z,25.70
2018-07-19T14:44:16.427Z,26.60
2018-07-19T14:46:44.752Z,26.50
2018-07-19T14:54:09.232Z,26.90
2018-07-19T14:56:37.579Z,26.90
2018-07-19T14:59:06.022Z,26.80
2018-07-19T15:01:34.359Z,26.70
2018-07-19T15:04:02.713Z,26.80
2018-07-19T15:06:31.026Z,26.50
2018-07-19T15:08:59.374Z,26.80
2018-07-19T15:11:27.684Z,26.70
2018-07-19T15:13:56.043Z,26.70
2018-07-19T15:16:24.384Z,26.90
2018-07-19T15:21:20.808Z,27.20
2018-07-19T15:23:49.163Z,26.80
2018-07-19T15:26:17.487Z,26.70
2018-07-19T15:28:45.845Z,26.10
2018-07-19T15:31:14.183Z,25.80
2018-07-19T15:33:42.543Z,25.80
2018-07-19T15:38:38.987Z,26.00
2018-07-19T15:46:03.472Z,25.90
2018-07-19T15:48:31.819Z,25.90
2018-07-19T15:51:00.141Z,25.90
2018-07-19T15:53:28.487Z,25.40
2018-07-19T15:55:56.811Z,25.20
2018-07-19T15:58:25.172Z,25.30
2018-07-19T16:00:53.498Z,25.40
2018-07-19T16:03:21.839Z,25.70
2018-07-19T16:05:50.163Z,25.90
2018-07-19T16:08:18.512Z,26.20
2018-07-19T16:10:46.835Z,26.20
2018-07-19T16:13:15.191Z,26.00
2018-07-19T16:18:11.590Z,25.60
2018-07-19T16:20:39.952Z,25.20
2018-07-19T16:23:08.287Z,25.00
2018-07-19T16:25:36.603Z,25.10
2018-07-19T16:28:04.988Z,25.50
2018-07-19T16:30:33.315Z,24.90
2018-07-19T16:33:01.652Z,25.10
2018-07-19T16:35:30.010Z,25.10
2018-07-19T16:37:58.348Z,25.20
2018-07-19T16:40:26.695Z,25.30
2018-07-19T16:42:55.065Z,25.40
2018-07-19T16:45:23.405Z,25.60
2018-07-19T16:50:19.795Z,26.00
2018-07-19T16:52:48.125Z,26.10
2018-07-19T16:55:16.507Z,26.20
2018-07-19T16:57:44.856Z,26.70
2018-07-19T17:00:13.271Z,26.60
2018-07-19T17:05:09.696Z,26.10
2018-07-19T17:07:38.031Z,25.80
2018-07-19T17:10:06.708Z,25.70
2018-07-19T17:12:35.265Z,25.90
2018-07-19T17:15:03.987Z,26.00
2018-07-19T17:17:32.321Z,26.00
2018-07-19T17:20:00.736Z,26.00
2018-07-19T17:22:29.057Z,25.90
2018-07-19T17:24:57.407Z,25.80
2018-07-19T17:27:25.754Z,25.90
2018-07-19T17:29:54.087Z,26.10
2018-07-19T17:32:22.429Z,26.30
2018-07-19T17:37:18.873Z,26.80
2018-07-19T17:42:15.364Z,26.70
2018-07-19T17:44:43.737Z,26.50
2018-07-19T17:47:12.176Z,26.60
2018-07-19T17:49:40.542Z,26.60
2018-07-19T17:52:08.896Z,26.40
2018-07-19T17:54:37.319Z,26.30
2018-07-19T17:57:05.673Z,26.10
2018-07-19T18:02:02.149Z,26.00
2018-07-19T18:04:30.518Z,26.00
2018-07-19T18:06:58.860Z,26.00
2018-07-19T18:09:27.231Z,26.20
2018-07-19T18:11:55.565Z,26.50
2018-07-19T18:14:23.937Z,26.90
2018-07-19T18:16:52.324Z,27.30
2018-07-19T18:19:20.655Z,27.70
2018-07-19T18:21:48.996Z,28.20
2018-07-19T18:24:17.373Z,28.40
2018-07-19T18:26:45.712Z,28.70
2018-07-19T18:29:14.045Z,29.20
2018-07-19T18:31:42.413Z,29.50
2018-07-19T18:36:38.847Z,30.00
2018-07-19T18:39:09.504Z,30.30
2018-07-19T18:41:37.967Z,30.50
2018-07-19T18:44:06.374Z,31.00
2018-07-19T18:46:34.724Z,31.10
2018-07-19T18:49:03.049Z,31.50
2018-07-19T18:51:31.409Z,31.60
2018-07-19T18:53:59.792Z,31.90
2018-07-19T18:56:28.303Z,32.20
2018-07-19T18:58:56.676Z,32.70
2018-07-19T19:01:25.069Z,33.00
2018-07-19T19:03:53.409Z,33.30
2018-07-19T19:06:22.110Z,33.60
2018-07-19T19:08:50.464Z,33.80
2018-07-19T19:13:46.983Z,34.10
2018-07-19T19:16:15.355Z,34.60
2018-07-19T19:18:43.709Z,34.80
2018-07-19T19:21:12.064Z,35.00
2018-07-19T19:23:40.440Z,35.20
2018-07-19T19:26:08.805Z,35.30
2018-07-19T19:31:05.223Z,35.50
2018-07-19T19:33:33.553Z,36.20
2018-07-19T19:36:01.914Z,36.70
2018-07-19T19:38:30.259Z,36.70
2018-07-19T19:40:58.608Z,37.70
2018-07-19T19:43:26.920Z,38.00
2018-07-19T19:45:55.285Z,38.20
2018-07-19T19:48:23.610Z,38.40
2018-07-19T19:50:52.016Z,38.70
2018-07-19T19:53:20.335Z,39.30
2018-07-19T19:55:48.667Z,39.60
2018-07-19T19:58:17.024Z,39.70
2018-07-19T20:00:45.412Z,39.90
2018-07-19T20:03:13.842Z,40.30
2018-07-19T20:05:42.229Z,40.40
2018-07-19T20:08:10.545Z,40.50
2018-07-19T20:10:38.896Z,40.60
2018-07-19T20:13:07.235Z,40.90
2018-07-19T20:15:35.580Z,41.20
2018-07-19T20:18:03.904Z,40.80
2018-07-19T20:20:33.260Z,41.50
2018-07-19T20:23:05.127Z,41.80
2018-07-19T20:25:35.684Z,42.10
2018-07-19T20:28:05.960Z,41.90
2018-07-19T20:30:34.748Z,42.30
2018-07-19T20:33:03.166Z,42.10
2018-07-19T20:35:31.499Z,42.40
2018-07-19T20:37:59.843Z,42.60
2018-07-19T20:40:28.164Z,42.80
2018-07-19T20:42:56.632Z,42.90
2018-07-19T20:45:24.980Z,43.20
2018-07-19T20:47:53.352Z,42.90
2018-07-19T20:50:21.731Z,43.10
2018-07-19T20:55:18.325Z,43.20
2018-07-19T20:57:46.704Z,43.30
2018-07-19T21:00:15.800Z,44.00
2018-07-19T21:02:44.211Z,44.20
2018-07-19T21:05:12.644Z,44.30
2018-07-19T21:07:40.990Z,44.60
2018-07-19T21:12:37.416Z,44.80
2018-07-19T21:15:06.295Z,45.00
2018-07-19T21:17:34.877Z,45.00
2018-07-19T21:20:03.284Z,45.40
2018-07-19T21:22:31.692Z,45.40
2018-07-19T21:27:28.159Z,46.00
2018-07-19T21:29:56.496Z,46.40
2018-07-19T21:32:24.848Z,46.60
2018-07-19T21:34:53.183Z,46.70
2018-07-19T21:37:21.547Z,47.00
2018-07-19T21:42:17.964Z,47.70
2018-07-19T21:44:46.314Z,48.10
2018-07-19T21:47:14.672Z,48.20
2018-07-19T21:49:43.025Z,48.20
2018-07-19T21:52:11.380Z,48.10
2018-07-19T21:54:39.750Z,48.10
2018-07-19T21:57:08.140Z,48.60
2018-07-19T21:59:36.468Z,49.10
2018-07-19T22:02:04.874Z,49.50
2018-07-19T22:04:33.209Z,49.50
2018-07-19T22:09:29.663Z,49.40
2018-07-19T22:11:58.028Z,49.50
2018-07-19T22:14:26.384Z,50.00
2018-07-19T22:16:54.751Z,50.00
2018-07-19T22:19:23.113Z,50.30
2018-07-19T22:21:51.431Z,50.20
2018-07-19T22:24:19.810Z,50.20
2018-07-19T22:26:48.131Z,50.30
2018-07-19T22:29:16.487Z,50.60
2018-07-19T22:31:44.813Z,50.70
2018-07-19T22:34:13.172Z,50.90
2018-07-19T22:36:41.496Z,51.10
2018-07-19T22:39:11.212Z,51.00
2018-07-19T22:41:39.833Z,51.20
2018-07-19T22:46:36.613Z,51.60
2018-07-19T22:49:05.226Z,51.30
2018-07-19T22:51:33.660Z,51.40
2018-07-19T22:54:02.076Z,51.50
2018-07-19T22:56:30.423Z,51.80
2018-07-19T23:01:26.891Z,52.00
2018-07-19T23:03:55.558Z,52.30
2018-07-19T23:08:52.047Z,52.70
2018-07-19T23:11:20.396Z,53.00
2018-07-19T23:13:48.772Z,52.90
2018-07-19T23:16:17.175Z,53.30
2018-07-19T23:18:45.627Z,53.40
2018-07-19T23:21:14.021Z,53.40
2018-07-19T23:23:42.404Z,53.50
2018-07-19T23:28:38.859Z,54.00
2018-07-19T23:31:07.246Z,54.10
2018-07-19T23:33:35.641Z,54.20
2018-07-19T23:36:07.765Z,54.30
2018-07-19T23:39:39.309Z,54.50
2018-07-19T23:42:14.603Z,55.00
2018-07-19T23:44:48.352Z,54.70
2018-07-19T23:47:20.511Z,54.90
2018-07-19T23:49:48.872Z,55.00
2018-07-19T23:52:17.260Z,55.00
2018-07-19T23:54:45.632Z,55.00
2018-07-19T23:57:14.027Z,55.00
2018-07-19T23:59:42.419Z,55.10
